createdAt,value
2018-12-19T00:03:00.520Z,48.73
2018-12-19T00:08:03.528Z,48.60
2018-12-19T00:13:08.110Z,52.30
2018-12-19T00:18:11.172Z,50.80
2018-12-19T00:23:13.797Z,42.53
2018-12-19T00:28:16.514Z,46.83
2018-12-19T00:33:19.798Z,42.10
2018-12-19T00:43:33.798Z,42.40
2018-12-19T00:48:37.498Z,43.77
2018-12-19T00:53:40.107Z,47.10
2018-12-19T00:58:43.785Z,44.37
2018-12-19T01:03:46.357Z,41.17
2018-12-19T01:08:48.932Z,40.47
2018-12-19T01:13:51.597Z,43.30
2018-12-19T01:18:58.350Z,44.00
2018-12-19T01:24:00.911Z,39.50
2018-12-19T01:29:03.493Z,43.20
2018-12-19T01:34:06.075Z,41.00
2018-12-19T01:39:09.161Z,41.77
2018-12-19T01:44:11.997Z,40.43
2018-12-19T01:49:14.585Z,44.17
2018-12-19T01:54:17.161Z,41.33
2018-12-19T01:59:20.188Z,44.10
2018-12-19T02:04:22.753Z,41.53
2018-12-19T02:09:29.024Z,43.00
2018-12-19T02:14:31.429Z,43.40
2018-12-19T02:19:34.005Z,46.13
2018-12-19T02:24:36.584Z,40.27
2018-12-19T02:29:39.175Z,43.93
2018-12-19T02:34:41.753Z,49.53
2018-12-19T02:39:44.883Z,40.47
2018-12-19T02:44:47.470Z,39.57
2018-12-19T02:49:50.318Z,43.20
2018-12-19T02:54:53.749Z,45.10
2018-12-19T02:59:56.449Z,45.40
2018-12-19T03:04:59.059Z,45.73
2018-12-19T03:10:01.737Z,45.00
2018-12-19T03:15:04.985Z,45.43
2018-12-19T03:20:07.647Z,42.47
2018-12-19T03:25:10.223Z,45.27
2018-12-19T03:30:13.017Z,39.87
2018-12-19T03:35:18.259Z,43.43
2018-12-19T03:40:21.448Z,39.17
2018-12-19T03:45:24.666Z,39.70
2018-12-19T03:50:27.237Z,44.40
2018-12-19T03:55:29.824Z,41.43
2018-12-19T04:00:33.097Z,42.83
2018-12-19T04:05:35.716Z,43.47
2018-12-19T04:10:38.316Z,42.70
2018-12-19T04:15:42.242Z,45.90
2018-12-19T04:20:45.146Z,42.00
2018-12-19T04:25:48.202Z,49.60
2018-12-19T04:30:52.257Z,43.50
2018-12-19T04:35:55.769Z,50.23
2018-12-19T04:40:58.365Z,52.03
2018-12-19T04:46:01.437Z,47.37
2018-12-19T04:51:04.845Z,49.50
2018-12-19T04:56:07.431Z,42.80
2018-12-19T05:01:10.447Z,50.07
2018-12-19T05:06:13.774Z,49.07
2018-12-19T05:11:16.619Z,44.23
2018-12-19T05:16:19.192Z,41.97
2018-12-19T05:21:21.924Z,43.30
2018-12-19T05:26:24.669Z,38.60
2018-12-19T05:31:27.917Z,43.60
2018-12-19T05:36:30.492Z,47.33
2018-12-19T05:41:33.073Z,45.53
2018-12-19T05:46:35.689Z,46.93
2018-12-19T05:51:38.273Z,47.77
2018-12-19T05:56:40.836Z,46.60
2018-12-19T06:01:44.455Z,49.90
2018-12-19T06:06:47.953Z,48.30
2018-12-19T06:11:50.557Z,53.10
2018-12-19T06:16:53.134Z,47.93
2018-12-19T06:21:59.224Z,49.77
2018-12-19T06:27:01.837Z,53.27
2018-12-19T06:32:07.338Z,53.83
2018-12-19T06:37:09.933Z,52.33
2018-12-19T06:42:13.941Z,55.13
2018-12-19T06:47:16.530Z,52.33
2018-12-19T06:52:19.762Z,49.60
2018-12-19T06:57:22.349Z,47.37
2018-12-19T07:02:26.316Z,44.17
2018-12-19T07:07:28.925Z,52.60
2018-12-19T07:12:33.205Z,44.80
2018-12-19T07:17:36.215Z,48.37
2018-12-19T07:22:38.818Z,49.10
2018-12-19T07:27:41.774Z,49.23
2018-12-19T07:32:44.348Z,53.97
2018-12-19T07:37:46.933Z,64.63
2018-12-19T07:42:53.381Z,48.03
2018-12-19T07:47:56.667Z,56.10
2018-12-19T07:52:59.791Z,46.70
2018-12-19T07:58:02.505Z,44.00
2018-12-19T08:03:05.101Z,46.63
2018-12-19T08:08:07.701Z,45.33
2018-12-19T08:13:10.289Z,46.37
2018-12-19T08:18:12.918Z,48.03
2018-12-19T08:23:15.505Z,47.07
2018-12-19T08:28:20.721Z,49.80
2018-12-19T08:33:23.929Z,51.73
2018-12-19T08:38:29.162Z,56.67
2018-12-19T08:43:31.745Z,54.73
2018-12-19T08:48:34.336Z,57.60
2018-12-19T08:53:37.826Z,59.93
2018-12-19T08:58:40.446Z,57.77
2018-12-19T09:03:43.024Z,55.97
2018-12-19T09:08:45.858Z,52.00
2018-12-19T09:13:48.434Z,61.73
2018-12-19T09:18:51.271Z,62.23
2018-12-19T09:23:55.389Z,57.57
2018-12-19T09:28:58.248Z,56.97
2018-12-19T09:34:00.938Z,50.90
2018-12-19T09:39:06.652Z,63.87
2018-12-19T09:44:09.317Z,51.00
2018-12-19T09:49:13.937Z,58.90
2018-12-19T09:54:17.296Z,55.43
2018-12-19T09:59:19.899Z,56.43
2018-12-19T10:04:22.750Z,55.03
2018-12-19T10:09:25.653Z,51.03
2018-12-19T10:14:30.749Z,58.90
2018-12-19T10:19:33.345Z,58.00
2018-12-19T10:24:42.603Z,60.80
2018-12-19T10:29:46.917Z,52.00
2018-12-19T10:34:49.852Z,57.33
2018-12-19T10:39:52.451Z,57.90
2018-12-19T10:44:58.195Z,56.47
2018-12-19T10:50:00.780Z,54.87
2018-12-19T10:55:04.420Z,56.60
2018-12-19T11:00:13.082Z,49.90
2018-12-19T11:05:15.690Z,56.37
2018-12-19T11:10:18.559Z,55.00
2018-12-19T11:15:21.809Z,53.93
2018-12-19T11:20:24.385Z,56.20
2018-12-19T11:25:27.048Z,58.10
2018-12-19T11:30:29.690Z,62.80
2018-12-19T11:35:32.276Z,52.83
2018-12-19T11:40:35.740Z,49.90
2018-12-19T11:45:38.729Z,54.80
2018-12-19T11:50:42.565Z,54.93
2018-12-19T11:55:45.895Z,50.40
2018-12-19T12:00:49.039Z,55.40
2018-12-19T12:05:52.461Z,51.17
2018-12-19T12:10:55.051Z,51.50
2018-12-19T12:15:58.425Z,47.47
2018-12-19T12:21:01.635Z,52.73
2018-12-19T12:26:04.265Z,48.07
2018-12-19T12:31:07.217Z,49.13
2018-12-19T12:36:09.795Z,50.70
2018-12-19T12:41:12.361Z,53.10
2018-12-19T12:46:15.255Z,50.97
2018-12-19T12:51:18.073Z,52.70
2018-12-19T12:56:20.815Z,50.87
2018-12-19T13:01:23.538Z,59.63
2018-12-19T13:06:29.986Z,57.47
2018-12-19T13:11:33.970Z,52.40
2018-12-19T13:16:39.259Z,51.73
2018-12-19T13:21:41.930Z,48.57
2018-12-19T13:26:46.276Z,54.23
2018-12-19T13:31:49.141Z,55.43
2018-12-19T13:36:51.744Z,60.00
2018-12-19T13:41:54.898Z,49.80
2018-12-19T13:46:57.796Z,51.13
2018-12-19T13:52:00.403Z,50.07
2018-12-19T13:57:06.188Z,47.67
2018-12-19T14:02:09.025Z,48.70
2018-12-19T14:07:12.190Z,47.37
2018-12-19T14:12:14.765Z,51.47
2018-12-19T14:17:17.537Z,48.40
2018-12-19T14:22:20.156Z,49.97
2018-12-19T14:27:23.377Z,52.67
2018-12-19T14:32:25.968Z,46.07
2018-12-19T14:37:31.315Z,52.87
2018-12-19T14:42:33.941Z,51.33
2018-12-19T14:47:36.690Z,53.50
2018-12-19T14:52:39.394Z,48.67
2018-12-19T14:57:41.976Z,47.60
2018-12-19T15:02:44.695Z,51.37
2018-12-19T15:07:47.294Z,48.40
2018-12-19T15:12:49.870Z,47.80
2018-12-19T15:17:53.769Z,52.70
2018-12-19T15:23:02.087Z,47.77
2018-12-19T15:28:04.722Z,48.77
2018-12-19T15:33:07.380Z,45.40
2018-12-19T15:38:11.597Z,53.03
2018-12-19T15:43:14.212Z,54.27
2018-12-19T15:48:16.813Z,50.83
2018-12-19T15:53:19.396Z,58.87
2018-12-19T15:58:21.983Z,58.43
2018-12-19T16:03:25.503Z,54.77
2018-12-19T16:08:28.533Z,57.43
2018-12-19T16:13:31.110Z,50.63
2018-12-19T16:18:33.685Z,55.90
2018-12-19T16:23:37.291Z,55.40
2018-12-19T16:28:54.585Z,58.30
2018-12-19T16:34:01.297Z,58.03
2018-12-19T16:39:07.339Z,65.67
2018-12-19T16:44:13.330Z,62.03
2018-12-19T16:49:16.528Z,60.70
2018-12-19T16:54:19.425Z,58.90
2018-12-19T16:59:23.863Z,62.80
2018-12-19T17:04:27.026Z,69.37
2018-12-19T17:09:30.105Z,67.93
2018-12-19T17:14:32.685Z,64.17
2018-12-19T17:19:35.268Z,65.90
2018-12-19T17:24:40.343Z,74.00
2018-12-19T17:29:43.992Z,69.83
2018-12-19T17:34:46.577Z,69.13
2018-12-19T17:39:49.226Z,65.23
2018-12-19T17:44:52.376Z,62.30
2018-12-19T17:49:54.969Z,57.00
2018-12-19T17:55:04.267Z,61.03
2018-12-19T18:00:08.086Z,54.93
2018-12-19T18:05:10.719Z,49.47
2018-12-19T18:10:13.953Z,49.27
2018-12-19T18:15:17.214Z,46.80
2018-12-19T18:20:19.827Z,40.90
2018-12-19T18:25:25.056Z,37.10
2018-12-19T18:30:28.910Z,38.83
2018-12-19T18:35:31.645Z,41.10
2018-12-19T18:40:34.258Z,38.70
2018-12-19T18:45:37.198Z,41.90
2018-12-19T18:50:39.804Z,41.90
2018-12-19T18:55:42.364Z,42.87
2018-12-19T19:00:46.607Z,48.63
2018-12-19T19:05:49.833Z,37.93
2018-12-19T19:10:52.448Z,36.67
2018-12-19T19:15:55.587Z,33.63
2018-12-19T19:21:04.710Z,32.50
2018-12-19T19:26:08.038Z,26.10
2018-12-19T19:31:10.625Z,30.47
2018-12-19T19:36:13.288Z,30.90
2018-12-19T19:41:15.950Z,29.67
2018-12-19T19:46:18.594Z,34.70
2018-12-19T19:51:21.174Z,39.90
2018-12-19T19:56:24.356Z,37.30
2018-12-19T20:01:27.007Z,34.07
2018-12-19T20:06:29.603Z,29.97
2018-12-19T20:11:32.460Z,35.23
2018-12-19T20:16:37.013Z,43.47
2018-12-19T20:21:39.636Z,41.53
2018-12-19T20:26:42.278Z,35.63
2018-12-19T20:31:44.863Z,33.17
2018-12-19T20:36:47.468Z,32.80
2018-12-19T20:41:50.865Z,35.10
2018-12-19T20:46:54.075Z,35.87
2018-12-19T20:51:59.302Z,35.63
2018-12-19T20:57:01.968Z,34.17
2018-12-19T21:02:05.327Z,33.03
2018-12-19T21:07:08.202Z,37.30
2018-12-19T21:12:10.830Z,34.37
2018-12-19T21:17:20.196Z,35.27
2018-12-19T21:22:25.429Z,36.13
2018-12-19T21:27:28.417Z,33.97
2018-12-19T21:32:31.184Z,33.70
2018-12-19T21:37:33.795Z,38.83
2018-12-19T21:42:36.535Z,34.80
2018-12-19T21:47:39.490Z,39.67
2018-12-19T21:52:42.436Z,41.93
2018-12-19T21:57:47.697Z,45.63
2018-12-19T22:02:50.888Z,44.77
2018-12-19T22:07:53.500Z,37.30
2018-12-19T22:12:56.168Z,35.47
2018-12-19T22:18:05.424Z,31.90
2018-12-19T22:23:08.090Z,31.60
2018-12-19T22:28:11.340Z,29.30
2018-12-19T22:33:14.689Z,32.77
2018-12-19T22:38:17.286Z,35.60
2018-12-19T22:43:20.438Z,29.17
2018-12-19T22:48:24.056Z,28.33
2018-12-19T22:53:26.701Z,29.60
2018-12-19T22:58:29.282Z,33.60
2018-12-19T23:09:11.902Z,27.93
2018-12-19T23:14:15.510Z,28.90
2018-12-19T23:19:19.919Z,28.67
2018-12-19T23:24:22.891Z,32.47
2018-12-19T23:29:25.477Z,29.07
2018-12-19T23:34:28.383Z,27.10
2018-12-19T23:39:32.286Z,29.27
2018-12-19T23:44:35.291Z,27.37
2018-12-19T23:49:39.749Z,33.37
2018-12-19T23:54:45.487Z,34.37
2018-12-19T23:59:48.177Z,35.27
